sensor_id;sensor_type;location;lat;lon;timestamp;temperature;humidity
42201;DHT22;27869;51.442;7.540;2023-03-03T00:01:05;1.60;99.90
42201;DHT22;27869;51.442;7.540;2023-03-03T00:03:33;1.60;99.90
42201;DHT22;27869;51.442;7.540;2023-03-03T00:06:01;1.60;99.90
42201;DHT22;27869;51.442;7.540;2023-03-03T00:08:28;1.60;99.90
42201;DHT22;27869;51.442;7.540;2023-03-03T00:10:57;1.60;99.90
42201;DHT22;27869;51.442;7.540;2023-03-03T00:13:27;1.60;99.90
42201;DHT22;27869;51.442;7.540;2023-03-03T00:16:10;1.60;99.90
42201;DHT22;27869;51.442;7.540;2023-03-03T00:18:40;1.60;99.90
42201;DHT22;27869;51.442;7.540;2023-03-03T00:21:14;1.60;99.90
42201;DHT22;27869;51.442;7.540;2023-03-03T00:23:43;1.60;99.90
42201;DHT22;27869;51.442;7.540;2023-03-03T00:26:17;1.60;99.90
42201;DHT22;27869;51.442;7.540;2023-03-03T00:28:48;1.50;99.90
42201;DHT22;27869;51.442;7.540;2023-03-03T00:31:16;1.50;99.90
42201;DHT22;27869;51.442;7.540;2023-03-03T00:33:47;1.50;99.90
42201;DHT22;27869;51.442;7.540;2023-03-03T00:36:28;1.50;99.90
42201;DHT22;27869;51.442;7.540;2023-03-03T00:39:09;1.50;99.90
42201;DHT22;27869;51.442;7.540;2023-03-03T00:41:38;1.50;99.90
42201;DHT22;27869;51.442;7.540;2023-03-03T00:44:31;1.50;99.90
42201;DHT22;27869;51.442;7.540;2023-03-03T00:47:02;1.50;99.90
42201;DHT22;27869;51.442;7.540;2023-03-03T00:49:39;1.50;99.90
42201;DHT22;27869;51.442;7.540;2023-03-03T00:52:11;1.50;99.90
42201;DHT22;27869;51.442;7.540;2023-03-03T00:54:39;1.50;99.90
42201;DHT22;27869;51.442;7.540;2023-03-03T00:57:06;1.40;99.90
42201;DHT22;27869;51.442;7.540;2023-03-03T00:59:34;1.40;99.90
42201;DHT22;27869;51.442;7.540;2023-03-03T01:02:01;1.40;99.90
42201;DHT22;27869;51.442;7.540;2023-03-03T01:04:28;1.40;99.90
42201;DHT22;27869;51.442;7.540;2023-03-03T01:06:55;1.40;99.90
42201;DHT22;27869;51.442;7.540;2023-03-03T01:09:22;1.40;99.90
42201;DHT22;27869;51.442;7.540;2023-03-03T01:11:49;1.40;99.90
42201;DHT22;27869;51.442;7.540;2023-03-03T01:14:16;1.40;99.90
42201;DHT22;27869;51.442;7.540;2023-03-03T01:16:45;1.40;99.90
42201;DHT22;27869;51.442;7.540;2023-03-03T01:19:12;1.40;99.90
42201;DHT22;27869;51.442;7.540;2023-03-03T01:21:39;1.40;99.90
42201;DHT22;27869;51.442;7.540;2023-03-03T01:24:05;1.40;99.90
42201;DHT22;27869;51.442;7.540;2023-03-03T01:26:32;1.40;99.90
42201;DHT22;27869;51.442;7.540;2023-03-03T01:28:59;1.40;99.90
42201;DHT22;27869;51.442;7.540;2023-03-03T01:31:26;1.40;99.90
42201;DHT22;27869;51.442;7.540;2023-03-03T01:33:54;1.40;99.90
42201;DHT22;27869;51.442;7.540;2023-03-03T01:36:24;1.40;99.90
42201;DHT22;27869;51.442;7.540;2023-03-03T01:38:51;1.40;99.90
42201;DHT22;27869;51.442;7.540;2023-03-03T01:41:19;1.40;99.90
42201;DHT22;27869;51.442;7.540;2023-03-03T01:43:48;1.40;99.90
42201;DHT22;27869;51.442;7.540;2023-03-03T01:46:45;1.40;99.90
42201;DHT22;27869;51.442;7.540;2023-03-03T01:49:17;1.30;99.90
42201;DHT22;27869;51.442;7.540;2023-03-03T01:51:49;1.30;99.90
42201;DHT22;27869;51.442;7.540;2023-03-03T01:54:22;1.20;99.90
42201;DHT22;27869;51.442;7.540;2023-03-03T01:56:54;1.20;99.90
42201;DHT22;27869;51.442;7.540;2023-03-03T01:59:24;1.20;99.90
42201;DHT22;27869;51.442;7.540;2023-03-03T02:01:52;1.30;99.90
42201;DHT22;27869;51.442;7.540;2023-03-03T02:04:21;1.30;99.90
42201;DHT22;27869;51.442;7.540;2023-03-03T02:06:51;1.30;99.90
42201;DHT22;27869;51.442;7.540;2023-03-03T02:09:23;1.30;99.90
42201;DHT22;27869;51.442;7.540;2023-03-03T02:11:56;1.40;99.90
42201;DHT22;27869;51.442;7.540;2023-03-03T02:14:24;1.30;99.90
42201;DHT22;27869;51.442;7.540;2023-03-03T02:16:51;1.40;99.90
42201;DHT22;27869;51.442;7.540;2023-03-03T02:19:25;1.40;99.90
42201;DHT22;27869;51.442;7.540;2023-03-03T02:21:58;1.40;99.90
42201;DHT22;27869;51.442;7.540;2023-03-03T02:24:30;1.40;99.90
42201;DHT22;27869;51.442;7.540;2023-03-03T02:27:00;1.40;99.90
42201;DHT22;27869;51.442;7.540;2023-03-03T02:29:27;1.40;99.90
42201;DHT22;27869;51.442;7.540;2023-03-03T02:31:54;1.40;99.90
42201;DHT22;27869;51.442;7.540;2023-03-03T02:34:21;1.40;99.90
42201;DHT22;27869;51.442;7.540;2023-03-03T02:36:48;1.40;99.90
42201;DHT22;27869;51.442;7.540;2023-03-03T02:39:17;1.30;99.90
42201;DHT22;27869;51.442;7.540;2023-03-03T02:41:45;1.30;99.90
42201;DHT22;27869;51.442;7.540;2023-03-03T02:44:16;1.30;99.90
42201;DHT22;27869;51.442;7.540;2023-03-03T02:46:45;1.30;99.90
42201;DHT22;27869;51.442;7.540;2023-03-03T02:49:13;1.30;99.90
42201;DHT22;27869;51.442;7.540;2023-03-03T02:51:41;1.30;99.90
42201;DHT22;27869;51.442;7.540;2023-03-03T02:54:09;1.30;99.90
42201;DHT22;27869;51.442;7.540;2023-03-03T02:56:37;1.30;99.90
42201;DHT22;27869;51.442;7.540;2023-03-03T02:59:04;1.30;99.90
42201;DHT22;27869;51.442;7.540;2023-03-03T03:01:32;1.30;99.90
42201;DHT22;27869;51.442;7.540;2023-03-03T03:04:03;1.30;99.90
42201;DHT22;27869;51.442;7.540;2023-03-03T03:06:31;1.20;99.90
42201;DHT22;27869;51.442;7.540;2023-03-03T03:08:58;1.20;99.90
42201;DHT22;27869;51.442;7.540;2023-03-03T03:11:25;1.20;99.90
42201;DHT22;27869;51.442;7.540;2023-03-03T03:13:52;1.20;99.90
42201;DHT22;27869;51.442;7.540;2023-03-03T03:16:19;1.30;99.90
42201;DHT22;27869;51.442;7.540;2023-03-03T03:18:47;1.30;99.90
42201;DHT22;27869;51.442;7.540;2023-03-03T03:21:15;1.30;99.90
42201;DHT22;27869;51.442;7.540;2023-03-03T03:23:42;1.30;99.90
42201;DHT22;27869;51.442;7.540;2023-03-03T03:26:09;1.30;99.90
42201;DHT22;27869;51.442;7.540;2023-03-03T03:28:37;1.20;99.90
42201;DHT22;27869;51.442;7.540;2023-03-03T03:31:04;1.20;99.90
42201;DHT22;27869;51.442;7.540;2023-03-03T03:33:32;1.30;99.90
42201;DHT22;27869;51.442;7.540;2023-03-03T03:36:01;1.30;99.90
42201;DHT22;27869;51.442;7.540;2023-03-03T03:38:29;1.20;99.90
42201;DHT22;27869;51.442;7.540;2023-03-03T03:40:56;1.20;99.90
42201;DHT22;27869;51.442;7.540;2023-03-03T03:43:24;1.20;99.90
42201;DHT22;27869;51.442;7.540;2023-03-03T03:45:51;1.20;99.90
42201;DHT22;27869;51.442;7.540;2023-03-03T03:48:18;1.20;99.90
42201;DHT22;27869;51.442;7.540;2023-03-03T03:50:46;1.20;99.90
42201;DHT22;27869;51.442;7.540;2023-03-03T03:53:15;1.20;99.90
42201;DHT22;27869;51.442;7.540;2023-03-03T03:55:42;1.20;99.90
42201;DHT22;27869;51.442;7.540;2023-03-03T03:58:12;1.20;99.90
42201;DHT22;27869;51.442;7.540;2023-03-03T04:00:39;1.20;99.90
42201;DHT22;27869;51.442;7.540;2023-03-03T04:03:06;1.20;99.90
42201;DHT22;27869;51.442;7.540;2023-03-03T04:05:33;1.20;99.90
42201;DHT22;27869;51.442;7.540;2023-03-03T04:08:00;1.20;99.90
42201;DHT22;27869;51.442;7.540;2023-03-03T04:10:29;1.20;99.90
42201;DHT22;27869;51.442;7.540;2023-03-03T04:12:56;1.20;99.90
42201;DHT22;27869;51.442;7.540;2023-03-03T04:15:24;1.20;99.90
42201;DHT22;27869;51.442;7.540;2023-03-03T04:17:50;1.20;99.90
42201;DHT22;27869;51.442;7.540;2023-03-03T04:20:17;1.20;99.90
42201;DHT22;27869;51.442;7.540;2023-03-03T04:22:44;1.20;99.90
42201;DHT22;27869;51.442;7.540;2023-03-03T04:25:14;1.20;99.90
42201;DHT22;27869;51.442;7.540;2023-03-03T04:27:43;1.20;99.90
42201;DHT22;27869;51.442;7.540;2023-03-03T04:30:11;1.20;99.90
42201;DHT22;27869;51.442;7.540;2023-03-03T04:32:38;1.20;99.90
42201;DHT22;27869;51.442;7.540;2023-03-03T04:35:06;1.20;99.90
42201;DHT22;27869;51.442;7.540;2023-03-03T04:37:33;1.20;99.90
42201;DHT22;27869;51.442;7.540;2023-03-03T04:40:00;1.10;99.90
42201;DHT22;27869;51.442;7.540;2023-03-03T04:42:27;1.20;99.90
42201;DHT22;27869;51.442;7.540;2023-03-03T04:44:56;1.10;99.90
42201;DHT22;27869;51.442;7.540;2023-03-03T04:47:23;1.10;99.90
42201;DHT22;27869;51.442;7.540;2023-03-03T04:49:49;1.10;99.90
42201;DHT22;27869;51.442;7.540;2023-03-03T04:52:16;1.10;99.90
42201;DHT22;27869;51.442;7.540;2023-03-03T04:54:43;1.10;99.90
42201;DHT22;27869;51.442;7.540;2023-03-03T04:57:10;1.10;99.90
42201;DHT22;27869;51.442;7.540;2023-03-03T04:59:37;1.10;99.90
42201;DHT22;27869;51.442;7.540;2023-03-03T05:02:05;1.00;99.90
42201;DHT22;27869;51.442;7.540;2023-03-03T05:04:33;1.10;99.90
42201;DHT22;27869;51.442;7.540;2023-03-03T05:07:00;1.10;99.90
42201;DHT22;27869;51.442;7.540;2023-03-03T05:09:27;1.10;99.90
42201;DHT22;27869;51.442;7.540;2023-03-03T05:11:54;1.10;99.90
42201;DHT22;27869;51.442;7.540;2023-03-03T05:14:21;1.10;99.90
42201;DHT22;27869;51.442;7.540;2023-03-03T05:16:48;1.10;99.90
42201;DHT22;27869;51.442;7.540;2023-03-03T05:19:16;1.10;99.90
42201;DHT22;27869;51.442;7.540;2023-03-03T05:21:43;1.10;99.90
42201;DHT22;27869;51.442;7.540;2023-03-03T05:24:12;1.20;99.90
42201;DHT22;27869;51.442;7.540;2023-03-03T05:26:39;1.20;99.90
42201;DHT22;27869;51.442;7.540;2023-03-03T05:29:07;1.20;99.90
42201;DHT22;27869;51.442;7.540;2023-03-03T05:31:34;1.20;99.90
42201;DHT22;27869;51.442;7.540;2023-03-03T05:34:01;1.20;99.90
42201;DHT22;27869;51.442;7.540;2023-03-03T05:36:29;1.20;99.90
42201;DHT22;27869;51.442;7.540;2023-03-03T05:38:56;1.20;99.90
42201;DHT22;27869;51.442;7.540;2023-03-03T05:41:23;1.20;99.90
42201;DHT22;27869;51.442;7.540;2023-03-03T05:43:50;1.20;99.90
42201;DHT22;27869;51.442;7.540;2023-03-03T05:46:17;1.20;99.90
42201;DHT22;27869;51.442;7.540;2023-03-03T05:48:44;1.20;99.90
42201;DHT22;27869;51.442;7.540;2023-03-03T05:51:11;1.20;99.90
42201;DHT22;27869;51.442;7.540;2023-03-03T05:53:39;1.20;99.90
42201;DHT22;27869;51.442;7.540;2023-03-03T05:56:06;1.20;99.90
42201;DHT22;27869;51.442;7.540;2023-03-03T05:58:33;1.20;99.90
42201;DHT22;27869;51.442;7.540;2023-03-03T06:01:00;1.20;99.90
42201;DHT22;27869;51.442;7.540;2023-03-03T06:03:27;1.30;99.90
42201;DHT22;27869;51.442;7.540;2023-03-03T06:05:54;1.30;99.90
42201;DHT22;27869;51.442;7.540;2023-03-03T06:08:21;1.30;99.90
42201;DHT22;27869;51.442;7.540;2023-03-03T06:10:49;1.30;99.90
42201;DHT22;27869;51.442;7.540;2023-03-03T06:13:16;1.30;99.90
42201;DHT22;27869;51.442;7.540;2023-03-03T06:15:43;1.30;99.90
42201;DHT22;27869;51.442;7.540;2023-03-03T06:18:10;1.30;99.90
42201;DHT22;27869;51.442;7.540;2023-03-03T06:20:37;1.30;99.90
42201;DHT22;27869;51.442;7.540;2023-03-03T06:23:04;1.30;99.90
42201;DHT22;27869;51.442;7.540;2023-03-03T06:25:31;1.30;99.90
42201;DHT22;27869;51.442;7.540;2023-03-03T06:28:01;1.30;99.90
42201;DHT22;27869;51.442;7.540;2023-03-03T06:30:28;1.20;99.90
42201;DHT22;27869;51.442;7.540;2023-03-03T06:32:56;1.30;99.90
42201;DHT22;27869;51.442;7.540;2023-03-03T06:35:23;1.30;99.90
42201;DHT22;27869;51.442;7.540;2023-03-03T06:37:50;1.30;99.90
42201;DHT22;27869;51.442;7.540;2023-03-03T06:40:17;1.20;99.90
42201;DHT22;27869;51.442;7.540;2023-03-03T06:42:44;1.30;99.90
42201;DHT22;27869;51.442;7.540;2023-03-03T06:45:12;1.30;99.90
42201;DHT22;27869;51.442;7.540;2023-03-03T06:47:40;1.30;99.90
42201;DHT22;27869;51.442;7.540;2023-03-03T06:50:08;1.30;99.90
42201;DHT22;27869;51.442;7.540;2023-03-03T06:52:35;1.30;99.90
42201;DHT22;27869;51.442;7.540;2023-03-03T06:55:10;1.30;99.90
42201;DHT22;27869;51.442;7.540;2023-03-03T06:57:38;1.30;99.90
42201;DHT22;27869;51.442;7.540;2023-03-03T07:00:15;1.30;99.90
42201;DHT22;27869;51.442;7.540;2023-03-03T07:02:42;1.20;99.90
42201;DHT22;27869;51.442;7.540;2023-03-03T07:05:13;1.30;99.90
42201;DHT22;27869;51.442;7.540;2023-03-03T07:07:40;1.30;99.90
42201;DHT22;27869;51.442;7.540;2023-03-03T07:10:18;1.30;99.90
42201;DHT22;27869;51.442;7.540;2023-03-03T07:12:46;1.20;99.90
42201;DHT22;27869;51.442;7.540;2023-03-03T07:15:18;1.20;99.90
42201;DHT22;27869;51.442;7.540;2023-03-03T07:17:48;1.20;99.90
42201;DHT22;27869;51.442;7.540;2023-03-03T07:20:18;1.20;99.90
42201;DHT22;27869;51.442;7.540;2023-03-03T07:22:46;1.20;99.90
42201;DHT22;27869;51.442;7.540;2023-03-03T07:25:20;1.30;99.90
42201;DHT22;27869;51.442;7.540;2023-03-03T07:27:48;1.30;99.90
42201;DHT22;27869;51.442;7.540;2023-03-03T07:30:25;1.30;99.90
42201;DHT22;27869;51.442;7.540;2023-03-03T07:32:53;1.30;99.90
42201;DHT22;27869;51.442;7.540;2023-03-03T07:35:35;1.30;99.90
42201;DHT22;27869;51.442;7.540;2023-03-03T07:38:15;1.30;99.90
42201;DHT22;27869;51.442;7.540;2023-03-03T07:40:47;1.30;99.90
42201;DHT22;27869;51.442;7.540;2023-03-03T07:43:28;1.30;99.90
42201;DHT22;27869;51.442;7.540;2023-03-03T07:46:02;1.30;99.90
42201;DHT22;27869;51.442;7.540;2023-03-03T07:48:33;1.30;99.90
42201;DHT22;27869;51.442;7.540;2023-03-03T07:51:04;1.40;99.90
42201;DHT22;27869;51.442;7.540;2023-03-03T07:53:33;1.40;99.90
42201;DHT22;27869;51.442;7.540;2023-03-03T07:56:11;1.40;99.90
42201;DHT22;27869;51.442;7.540;2023-03-03T07:58:41;1.40;99.90
42201;DHT22;27869;51.442;7.540;2023-03-03T08:01:30;1.40;99.90
42201;DHT22;27869;51.442;7.540;2023-03-03T08:04:00;1.40;99.90
42201;DHT22;27869;51.442;7.540;2023-03-03T08:06:41;1.40;99.90
42201;DHT22;27869;51.442;7.540;2023-03-03T08:09:30;1.30;99.90
42201;DHT22;27869;51.442;7.540;2023-03-03T08:12:23;1.40;99.90
42201;DHT22;27869;51.442;7.540;2023-03-03T08:14:57;1.30;99.90
42201;DHT22;27869;51.442;7.540;2023-03-03T08:17:35;1.40;99.90
42201;DHT22;27869;51.442;7.540;2023-03-03T08:23:17;1.40;99.90
42201;DHT22;27869;51.442;7.540;2023-03-03T08:25:45;1.40;99.90
42201;DHT22;27869;51.442;7.540;2023-03-03T08:28:13;1.40;99.90
42201;DHT22;27869;51.442;7.540;2023-03-03T08:30:41;1.40;99.90
42201;DHT22;27869;51.442;7.540;2023-03-03T08:33:11;1.50;99.90
42201;DHT22;27869;51.442;7.540;2023-03-03T08:35:38;1.50;99.90
42201;DHT22;27869;51.442;7.540;2023-03-03T08:38:06;1.50;99.90
42201;DHT22;27869;51.442;7.540;2023-03-03T08:40:34;1.50;99.90
42201;DHT22;27869;51.442;7.540;2023-03-03T08:43:02;1.50;99.90
42201;DHT22;27869;51.442;7.540;2023-03-03T08:45:29;1.50;99.90
42201;DHT22;27869;51.442;7.540;2023-03-03T08:47:57;1.50;99.90
42201;DHT22;27869;51.442;7.540;2023-03-03T08:50:25;1.60;99.90
42201;DHT22;27869;51.442;7.540;2023-03-03T08:52:53;1.60;99.90
42201;DHT22;27869;51.442;7.540;2023-03-03T08:55:19;1.60;99.90
42201;DHT22;27869;51.442;7.540;2023-03-03T08:57:47;1.60;99.90
42201;DHT22;27869;51.442;7.540;2023-03-03T09:00:16;1.60;99.90
42201;DHT22;27869;51.442;7.540;2023-03-03T09:02:44;1.70;99.90
42201;DHT22;27869;51.442;7.540;2023-03-03T09:05:11;1.70;99.90
42201;DHT22;27869;51.442;7.540;2023-03-03T09:07:39;1.70;99.90
42201;DHT22;27869;51.442;7.540;2023-03-03T09:10:07;1.70;99.90
42201;DHT22;27869;51.442;7.540;2023-03-03T09:12:37;1.80;99.90
42201;DHT22;27869;51.442;7.540;2023-03-03T09:15:14;1.80;99.90
42201;DHT22;27869;51.442;7.540;2023-03-03T09:17:42;1.80;99.90
42201;DHT22;27869;51.442;7.540;2023-03-03T09:20:30;1.80;99.90
42201;DHT22;27869;51.442;7.540;2023-03-03T09:23:20;1.90;99.90
42201;DHT22;27869;51.442;7.540;2023-03-03T09:25:51;1.90;99.90
42201;DHT22;27869;51.442;7.540;2023-03-03T09:28:23;1.90;99.90
42201;DHT22;27869;51.442;7.540;2023-03-03T09:30:51;1.90;99.90
42201;DHT22;27869;51.442;7.540;2023-03-03T09:33:24;1.90;99.90
42201;DHT22;27869;51.442;7.540;2023-03-03T09:35:53;1.90;99.90
42201;DHT22;27869;51.442;7.540;2023-03-03T09:38:28;1.90;99.90
42201;DHT22;27869;51.442;7.540;2023-03-03T09:44:21;2.00;99.90
42201;DHT22;27869;51.442;7.540;2023-03-03T09:47:08;2.00;99.90
42201;DHT22;27869;51.442;7.540;2023-03-03T09:49:47;2.00;99.90
42201;DHT22;27869;51.442;7.540;2023-03-03T09:52:29;2.00;99.90
42201;DHT22;27869;51.442;7.540;2023-03-03T09:55:06;2.10;99.90
42201;DHT22;27869;51.442;7.540;2023-03-03T09:57:50;2.10;99.90
42201;DHT22;27869;51.442;7.540;2023-03-03T10:00:30;2.10;99.90
42201;DHT22;27869;51.442;7.540;2023-03-03T10:03:14;2.10;99.90
42201;DHT22;27869;51.442;7.540;2023-03-03T10:05:50;2.10;99.90
42201;DHT22;27869;51.442;7.540;2023-03-03T10:08:32;2.20;99.90
42201;DHT22;27869;51.442;7.540;2023-03-03T10:11:11;2.20;99.90
42201;DHT22;27869;51.442;7.540;2023-03-03T10:13:49;2.20;99.90
42201;DHT22;27869;51.442;7.540;2023-03-03T10:19:21;2.30;99.90
42201;DHT22;27869;51.442;7.540;2023-03-03T10:21:57;2.30;99.90
42201;DHT22;27869;51.442;7.540;2023-03-03T10:24:29;2.30;99.90
42201;DHT22;27869;51.442;7.540;2023-03-03T10:27:15;2.30;99.90
42201;DHT22;27869;51.442;7.540;2023-03-03T10:29:53;2.30;99.90
42201;DHT22;27869;51.442;7.540;2023-03-03T10:32:31;2.40;99.90
42201;DHT22;27869;51.442;7.540;2023-03-03T10:35:17;2.40;99.90
42201;DHT22;27869;51.442;7.540;2023-03-03T10:37:57;2.40;99.90
42201;DHT22;27869;51.442;7.540;2023-03-03T10:40:33;2.50;99.90
42201;DHT22;27869;51.442;7.540;2023-03-03T10:43:43;2.50;99.90
42201;DHT22;27869;51.442;7.540;2023-03-03T10:46:33;2.60;99.90
42201;DHT22;27869;51.442;7.540;2023-03-03T10:52:18;2.60;99.90
42201;DHT22;27869;51.442;7.540;2023-03-03T10:54:56;2.60;99.90
42201;DHT22;27869;51.442;7.540;2023-03-03T10:57:33;2.60;99.90
42201;DHT22;27869;51.442;7.540;2023-03-03T11:00:18;2.60;99.90
42201;DHT22;27869;51.442;7.540;2023-03-03T11:05:39;2.70;99.90
42201;DHT22;27869;51.442;7.540;2023-03-03T11:08:12;2.70;99.90
42201;DHT22;27869;51.442;7.540;2023-03-03T11:10:51;2.70;99.90
42201;DHT22;27869;51.442;7.540;2023-03-03T11:13:27;2.80;99.90
42201;DHT22;27869;51.442;7.540;2023-03-03T11:16:25;2.90;99.90
42201;DHT22;27869;51.442;7.540;2023-03-03T11:19:04;2.90;99.90
42201;DHT22;27869;51.442;7.540;2023-03-03T11:21:38;3.00;99.90
42201;DHT22;27869;51.442;7.540;2023-03-03T11:24:25;3.00;99.90
42201;DHT22;27869;51.442;7.540;2023-03-03T11:27:07;3.10;99.90
42201;DHT22;27869;51.442;7.540;2023-03-03T11:29:50;3.10;99.90
42201;DHT22;27869;51.442;7.540;2023-03-03T11:32:26;3.10;99.90
42201;DHT22;27869;51.442;7.540;2023-03-03T11:35:05;3.10;99.90
42201;DHT22;27869;51.442;7.540;2023-03-03T11:37:39;3.10;99.90
42201;DHT22;27869;51.442;7.540;2023-03-03T11:40:16;3.00;99.90
42201;DHT22;27869;51.442;7.540;2023-03-03T11:42:52;3.00;99.90
42201;DHT22;27869;51.442;7.540;2023-03-03T11:45:24;3.00;99.90
42201;DHT22;27869;51.442;7.540;2023-03-03T11:47:57;3.00;99.90
42201;DHT22;27869;51.442;7.540;2023-03-03T11:50:30;3.00;99.90
42201;DHT22;27869;51.442;7.540;2023-03-03T11:53:08;3.10;99.90
42201;DHT22;27869;51.442;7.540;2023-03-03T11:55:44;3.20;99.90
42201;DHT22;27869;51.442;7.540;2023-03-03T11:58:19;3.20;99.90
42201;DHT22;27869;51.442;7.540;2023-03-03T12:00:50;3.20;99.90
42201;DHT22;27869;51.442;7.540;2023-03-03T12:03:29;3.30;99.90
42201;DHT22;27869;51.442;7.540;2023-03-03T12:06:08;3.30;99.90
42201;DHT22;27869;51.442;7.540;2023-03-03T12:08:55;3.30;99.90
42201;DHT22;27869;51.442;7.540;2023-03-03T12:11:26;3.40;99.90
42201;DHT22;27869;51.442;7.540;2023-03-03T12:13:57;3.40;99.90
42201;DHT22;27869;51.442;7.540;2023-03-03T12:16:35;3.50;99.90
42201;DHT22;27869;51.442;7.540;2023-03-03T12:22:20;3.50;99.90
42201;DHT22;27869;51.442;7.540;2023-03-03T12:25:00;3.50;99.90
42201;DHT22;27869;51.442;7.540;2023-03-03T12:27:37;3.50;99.90
42201;DHT22;27869;51.442;7.540;2023-03-03T12:30:15;3.60;99.90
42201;DHT22;27869;51.442;7.540;2023-03-03T12:33:00;3.60;99.90
42201;DHT22;27869;51.442;7.540;2023-03-03T12:35:34;3.60;99.90
42201;DHT22;27869;51.442;7.540;2023-03-03T12:38:12;3.60;99.90
42201;DHT22;27869;51.442;7.540;2023-03-03T12:40:47;3.60;99.90
42201;DHT22;27869;51.442;7.540;2023-03-03T12:43:27;3.60;99.90
42201;DHT22;27869;51.442;7.540;2023-03-03T12:46:04;3.70;99.90
42201;DHT22;27869;51.442;7.540;2023-03-03T12:48:37;3.70;99.90
42201;DHT22;27869;51.442;7.540;2023-03-03T12:51:15;3.70;99.90
42201;DHT22;27869;51.442;7.540;2023-03-03T12:54:03;3.80;99.90
42201;DHT22;27869;51.442;7.540;2023-03-03T12:56:40;3.80;99.90
42201;DHT22;27869;51.442;7.540;2023-03-03T12:59:13;3.80;99.90
42201;DHT22;27869;51.442;7.540;2023-03-03T13:01:52;3.80;99.90
42201;DHT22;27869;51.442;7.540;2023-03-03T13:04:31;3.80;99.90
42201;DHT22;27869;51.442;7.540;2023-03-03T13:07:04;3.80;99.90
42201;DHT22;27869;51.442;7.540;2023-03-03T13:09:41;3.80;99.90
42201;DHT22;27869;51.442;7.540;2023-03-03T13:12:27;3.90;99.90
42201;DHT22;27869;51.442;7.540;2023-03-03T13:15:00;3.90;99.90
42201;DHT22;27869;51.442;7.540;2023-03-03T13:17:31;3.90;99.90
42201;DHT22;27869;51.442;7.540;2023-03-03T13:20:02;4.00;99.90
42201;DHT22;27869;51.442;7.540;2023-03-03T13:22:38;4.00;99.90
42201;DHT22;27869;51.442;7.540;2023-03-03T13:25:31;4.00;99.90
42201;DHT22;27869;51.442;7.540;2023-03-03T13:28:04;4.00;99.90
42201;DHT22;27869;51.442;7.540;2023-03-03T13:30:33;3.90;99.90
42201;DHT22;27869;51.442;7.540;2023-03-03T13:33:06;3.90;99.90
42201;DHT22;27869;51.442;7.540;2023-03-03T13:35:41;3.90;99.90
42201;DHT22;27869;51.442;7.540;2023-03-03T13:38:10;4.00;99.90
42201;DHT22;27869;51.442;7.540;2023-03-03T13:40:42;4.00;99.90
42201;DHT22;27869;51.442;7.540;2023-03-03T13:43:16;4.00;99.90
42201;DHT22;27869;51.442;7.540;2023-03-03T13:46:01;4.10;99.90
42201;DHT22;27869;51.442;7.540;2023-03-03T13:48:45;4.10;99.90
42201;DHT22;27869;51.442;7.540;2023-03-03T13:51:20;4.20;99.90
42201;DHT22;27869;51.442;7.540;2023-03-03T13:53:54;4.30;99.90
42201;DHT22;27869;51.442;7.540;2023-03-03T13:56:39;4.30;99.90
42201;DHT22;27869;51.442;7.540;2023-03-03T13:59:18;4.30;99.90
42201;DHT22;27869;51.442;7.540;2023-03-03T14:01:54;4.30;99.90
42201;DHT22;27869;51.442;7.540;2023-03-03T14:04:31;4.30;99.90
42201;DHT22;27869;51.442;7.540;2023-03-03T14:07:10;4.20;99.90
42201;DHT22;27869;51.442;7.540;2023-03-03T14:09:55;4.20;99.90
42201;DHT22;27869;51.442;7.540;2023-03-03T14:12:33;4.20;99.90
42201;DHT22;27869;51.442;7.540;2023-03-03T14:15:10;4.10;99.90
42201;DHT22;27869;51.442;7.540;2023-03-03T14:17:52;4.20;99.90
42201;DHT22;27869;51.442;7.540;2023-03-03T14:20:28;4.20;99.90
42201;DHT22;27869;51.442;7.540;2023-03-03T14:22:58;4.20;99.90
42201;DHT22;27869;51.442;7.540;2023-03-03T14:25:27;4.30;99.90
42201;DHT22;27869;51.442;7.540;2023-03-03T14:28:20;4.30;99.90
42201;DHT22;27869;51.442;7.540;2023-03-03T14:30:47;4.30;99.90
42201;DHT22;27869;51.442;7.540;2023-03-03T14:33:18;4.40;99.90
42201;DHT22;27869;51.442;7.540;2023-03-03T14:35:59;4.40;99.90
42201;DHT22;27869;51.442;7.540;2023-03-03T14:38:36;4.40;99.90
42201;DHT22;27869;51.442;7.540;2023-03-03T14:41:15;4.40;99.90
42201;DHT22;27869;51.442;7.540;2023-03-03T14:43:44;4.40;99.90
42201;DHT22;27869;51.442;7.540;2023-03-03T14:46:33;4.30;99.90
42201;DHT22;27869;51.442;7.540;2023-03-03T14:49:03;4.40;99.90
42201;DHT22;27869;51.442;7.540;2023-03-03T14:51:38;4.40;99.90
42201;DHT22;27869;51.442;7.540;2023-03-03T14:54:08;4.40;99.90
42201;DHT22;27869;51.442;7.540;2023-03-03T14:56:54;4.40;99.90
42201;DHT22;27869;51.442;7.540;2023-03-03T14:59:24;4.40;99.90
42201;DHT22;27869;51.442;7.540;2023-03-03T15:01:57;4.40;99.90
42201;DHT22;27869;51.442;7.540;2023-03-03T15:04:27;4.50;99.90
42201;DHT22;27869;51.442;7.540;2023-03-03T15:06:55;4.50;99.90
42201;DHT22;27869;51.442;7.540;2023-03-03T15:09:27;4.60;99.90
42201;DHT22;27869;51.442;7.540;2023-03-03T15:11:58;4.60;99.90
42201;DHT22;27869;51.442;7.540;2023-03-03T15:14:31;4.60;99.90
42201;DHT22;27869;51.442;7.540;2023-03-03T15:17:23;4.60;99.90
42201;DHT22;27869;51.442;7.540;2023-03-03T15:20:02;4.70;99.90
42201;DHT22;27869;51.442;7.540;2023-03-03T15:22:45;4.70;99.90
42201;DHT22;27869;51.442;7.540;2023-03-03T15:25:21;4.70;99.90
42201;DHT22;27869;51.442;7.540;2023-03-03T15:27:55;4.70;99.90
42201;DHT22;27869;51.442;7.540;2023-03-03T15:30:34;4.80;99.90
42201;DHT22;27869;51.442;7.540;2023-03-03T15:33:09;4.80;99.90
42201;DHT22;27869;51.442;7.540;2023-03-03T15:35:47;4.80;99.90
42201;DHT22;27869;51.442;7.540;2023-03-03T15:38:26;4.90;99.90
42201;DHT22;27869;51.442;7.540;2023-03-03T15:41:01;4.90;99.90
42201;DHT22;27869;51.442;7.540;2023-03-03T15:43:31;4.90;99.90
42201;DHT22;27869;51.442;7.540;2023-03-03T15:46:04;4.90;99.90
42201;DHT22;27869;51.442;7.540;2023-03-03T15:48:45;4.90;99.90
42201;DHT22;27869;51.442;7.540;2023-03-03T15:51:24;4.90;99.90
42201;DHT22;27869;51.442;7.540;2023-03-03T15:54:27;4.90;99.90
42201;DHT22;27869;51.442;7.540;2023-03-03T15:56:56;4.90;99.90
42201;DHT22;27869;51.442;7.540;2023-03-03T15:59:53;4.90;99.90
42201;DHT22;27869;51.442;7.540;2023-03-03T16:02:25;4.90;99.90
42201;DHT22;27869;51.442;7.540;2023-03-03T16:04:58;4.80;99.90
42201;DHT22;27869;51.442;7.540;2023-03-03T16:07:37;4.80;99.90
42201;DHT22;27869;51.442;7.540;2023-03-03T16:10:18;4.80;99.90
42201;DHT22;27869;51.442;7.540;2023-03-03T16:12:58;4.80;99.90
42201;DHT22;27869;51.442;7.540;2023-03-03T16:15:47;4.80;99.90
42201;DHT22;27869;51.442;7.540;2023-03-03T16:18:23;4.80;99.90
42201;DHT22;27869;51.442;7.540;2023-03-03T16:21:16;4.80;99.90
42201;DHT22;27869;51.442;7.540;2023-03-03T16:23:46;4.70;99.90
42201;DHT22;27869;51.442;7.540;2023-03-03T16:26:28;4.70;99.90
42201;DHT22;27869;51.442;7.540;2023-03-03T16:29:32;4.60;99.90
42201;DHT22;27869;51.442;7.540;2023-03-03T16:32:04;4.60;99.90
42201;DHT22;27869;51.442;7.540;2023-03-03T16:34:42;4.60;99.90
42201;DHT22;27869;51.442;7.540;2023-03-03T16:37:14;4.50;99.90
42201;DHT22;27869;51.442;7.540;2023-03-03T16:39:51;4.50;99.90